sensor_id;sensor_type;location;lat;lon;timestamp;pressure;altitude;pressure_sealevel;temperature;humidity
5062;BME280;2351;50.812;12.872;2024-01-15T00:01:42;96110.53;;;-2.02;100.00
5062;BME280;2351;50.812;12.872;2024-01-15T00:04:15;96115.72;;;-2.02;100.00
5062;BME280;2351;50.812;12.872;2024-01-15T00:06:47;96106.16;;;-2.01;100.00
5062;BME280;2351;50.812;12.872;2024-01-15T00:09:18;96095.59;;;-1.98;100.00
5062;BME280;2351;50.812;12.872;2024-01-15T00:11:50;96097.63;;;-2.03;100.00
5062;BME280;2351;50.812;12.872;2024-01-15T00:14:22;96087.19;;;-2.02;100.00
5062;BME280;2351;50.812;12.872;2024-01-15T00:16:53;96090.06;;;-2.06;100.00
5062;BME280;2351;50.812;12.872;2024-01-15T00:19:27;96091.72;;;-2.05;100.00
5062;BME280;2351;50.812;12.872;2024-01-15T00:21:58;96092.66;;;-2.06;100.00
5062;BME280;2351;50.812;12.872;2024-01-15T00:24:30;96095.25;;;-2.06;100.00
5062;BME280;2351;50.812;12.872;2024-01-15T00:27:02;96085.91;;;-2.09;100.00
5062;BME280;2351;50.812;12.872;2024-01-15T00:29:33;96091.84;;;-2.07;100.00
5062;BME280;2351;50.812;12.872;2024-01-15T00:32:05;96078.75;;;-2.05;100.00
5062;BME280;2351;50.812;12.872;2024-01-15T00:34:38;96081.53;;;-2.08;100.00
5062;BME280;2351;50.812;12.872;2024-01-15T00:37:11;96077.81;;;-2.04;100.00
5062;BME280;2351;50.812;12.872;2024-01-15T00:39:43;96077.81;;;-2.04;100.00
5062;BME280;2351;50.812;12.872;2024-01-15T00:42:14;96072.63;;;-2.04;100.00
5062;BME280;2351;50.812;12.872;2024-01-15T00:44:46;96078.03;;;-2.07;100.00
5062;BME280;2351;50.812;12.872;2024-01-15T00:47:18;96079.88;;;-2.09;100.00
5062;BME280;2351;50.812;12.872;2024-01-15T00:49:51;96093.38;;;-2.04;100.00
5062;BME280;2351;50.812;12.872;2024-01-15T00:52:23;96080.22;;;-2.01;100.00
5062;BME280;2351;50.812;12.872;2024-01-15T00:54:54;96074.41;;;-2.05;100.00
5062;BME280;2351;50.812;12.872;2024-01-15T00:57:26;96070.97;;;-2.05;100.00
5062;BME280;2351;50.812;12.872;2024-01-15T00:59:58;96071.16;;;-2.08;100.00
5062;BME280;2351;50.812;12.872;2024-01-15T01:02:29;96072.75;;;-2.06;100.00
5062;BME280;2351;50.812;12.872;2024-01-15T01:05:03;96067.66;;;-2.07;100.00
5062;BME280;2351;50.812;12.872;2024-01-15T01:07:35;96070.75;;;-2.15;100.00
5062;BME280;2351;50.812;12.872;2024-01-15T01:10:07;96071.06;;;-2.20;100.00
5062;BME280;2351;50.812;12.872;2024-01-15T01:12:39;96062.66;;;-2.23;100.00
5062;BME280;2351;50.812;12.872;2024-01-15T01:15:11;96054.97;;;-2.25;100.00
5062;BME280;2351;50.812;12.872;2024-01-15T01:17:43;96059.53;;;-2.29;100.00
5062;BME280;2351;50.812;12.872;2024-01-15T01:20:16;96048.31;;;-2.29;100.00
5062;BME280;2351;50.812;12.872;2024-01-15T01:22:48;96028.50;;;-2.30;100.00
5062;BME280;2351;50.812;12.872;2024-01-15T01:25:19;96021.78;;;-2.33;100.00
5062;BME280;2351;50.812;12.872;2024-01-15T01:27:51;96023.13;;;-2.27;100.00
5062;BME280;2351;50.812;12.872;2024-01-15T01:30:23;96017.44;;;-2.32;100.00
5062;BME280;2351;50.812;12.872;2024-01-15T01:32:54;96020.22;;;-2.35;100.00
5062;BME280;2351;50.812;12.872;2024-01-15T01:35:27;96006.53;;;-2.37;100.00
5062;BME280;2351;50.812;12.872;2024-01-15T01:37:59;96007.47;;;-2.38;100.00
5062;BME280;2351;50.812;12.872;2024-01-15T01:40:31;96001.84;;;-2.45;100.00
5062;BME280;2351;50.812;12.872;2024-01-15T01:43:03;95987.50;;;-2.51;100.00
5062;BME280;2351;50.812;12.872;2024-01-15T01:45:35;95989.34;;;-2.53;100.00
5062;BME280;2351;50.812;12.872;2024-01-15T01:48:07;95989.34;;;-2.53;100.00
5062;BME280;2351;50.812;12.872;2024-01-15T01:50:40;95978.06;;;-2.52;100.00
5062;BME280;2351;50.812;12.872;2024-01-15T01:53:12;95990.94;;;-2.50;100.00
5062;BME280;2351;50.812;12.872;2024-01-15T01:55:44;96003.97;;;-2.52;100.00
5062;BME280;2351;50.812;12.872;2024-01-15T01:58:17;96045.66;;;-2.55;100.00
5062;BME280;2351;50.812;12.872;2024-01-15T02:00:50;96050.63;;;-2.52;100.00
5062;BME280;2351;50.812;12.872;2024-01-15T02:03:21;96048.94;;;-2.53;100.00
5062;BME280;2351;50.812;12.872;2024-01-15T02:05:55;96049.91;;;-2.54;100.00
5062;BME280;2351;50.812;12.872;2024-01-15T02:08:27;96041.19;;;-2.53;100.00
5062;BME280;2351;50.812;12.872;2024-01-15T02:10:59;96044.72;;;-2.54;100.00
5062;BME280;2351;50.812;12.872;2024-01-15T02:13:31;96045.84;;;-2.58;100.00
5062;BME280;2351;50.812;12.872;2024-01-15T02:16:03;96045.09;;;-2.60;100.00
5062;BME280;2351;50.812;12.872;2024-01-15T02:18:41;96047.50;;;-2.57;100.00
5062;BME280;2351;50.812;12.872;2024-01-15T02:21:15;96050.28;;;-2.60;100.00
5062;BME280;2351;50.812;12.872;2024-01-15T02:23:48;96043.75;;;-2.66;100.00
5062;BME280;2351;50.812;12.872;2024-01-15T02:26:20;96050.38;;;-2.62;100.00
5062;BME280;2351;50.812;12.872;2024-01-15T02:28:52;96038.84;;;-2.70;100.00
5062;BME280;2351;50.812;12.872;2024-01-15T02:31:24;96045.03;;;-2.73;100.00
5062;BME280;2351;50.812;12.872;2024-01-15T02:33:55;96045.88;;;-2.73;100.00
5062;BME280;2351;50.812;12.872;2024-01-15T02:36:27;96044.19;;;-2.74;100.00
5062;BME280;2351;50.812;12.872;2024-01-15T02:39:00;96050.22;;;-2.73;100.00
5062;BME280;2351;50.812;12.872;2024-01-15T02:41:32;96055.59;;;-2.76;100.00
5062;BME280;2351;50.812;12.872;2024-01-15T02:44:04;96058.47;;;-2.81;100.00
5062;BME280;2351;50.812;12.872;2024-01-15T02:46:35;96062.00;;;-2.82;100.00
5062;BME280;2351;50.812;12.872;2024-01-15T02:49:07;96060.53;;;-2.86;100.00
5062;BME280;2351;50.812;12.872;2024-01-15T02:51:39;96044.97;;;-2.86;100.00
5062;BME280;2351;50.812;12.872;2024-01-15T02:54:12;96053.88;;;-2.90;100.00
5062;BME280;2351;50.812;12.872;2024-01-15T02:56:44;96046.09;;;-2.90;100.00
5062;BME280;2351;50.812;12.872;2024-01-15T02:59:16;96043.50;;;-2.90;100.00
5062;BME280;2351;50.812;12.872;2024-01-15T03:01:47;96056.38;;;-2.89;100.00
5062;BME280;2351;50.812;12.872;2024-01-15T03:04:19;96053.13;;;-2.92;100.00
5062;BME280;2351;50.812;12.872;2024-01-15T03:06:51;96049.72;;;-2.93;100.00
5062;BME280;2351;50.812;12.872;2024-01-15T03:09:24;96058.59;;;-2.97;100.00
5062;BME280;2351;50.812;12.872;2024-01-15T03:11:55;96053.59;;;-3.00;100.00
5062;BME280;2351;50.812;12.872;2024-01-15T03:14:27;96053.91;;;-3.05;100.00
5062;BME280;2351;50.812;12.872;2024-01-15T03:16:59;96045.00;;;-3.15;100.00
5062;BME280;2351;50.812;12.872;2024-01-15T03:19:31;96055.38;;;-3.15;100.00
5062;BME280;2351;50.812;12.872;2024-01-15T03:22:05;96056.13;;;-3.13;100.00
5062;BME280;2351;50.812;12.872;2024-01-15T03:24:40;96054.44;;;-3.14;100.00
5062;BME280;2351;50.812;12.872;2024-01-15T03:27:12;96047.78;;;-3.18;100.00
5062;BME280;2351;50.812;12.872;2024-01-15T03:29:43;96037.00;;;-3.10;100.00
5062;BME280;2351;50.812;12.872;2024-01-15T03:32:15;96040.41;;;-3.10;100.00
5062;BME280;2351;50.812;12.872;2024-01-15T03:34:47;96045.00;;;-3.15;100.00
5062;BME280;2351;50.812;12.872;2024-01-15T03:37:18;96045.41;;;-3.21;100.00
5062;BME280;2351;50.812;12.872;2024-01-15T03:39:52;96049.09;;;-3.25;100.00
5062;BME280;2351;50.812;12.872;2024-01-15T03:42:24;96036.06;;;-3.24;100.00
5062;BME280;2351;50.812;12.872;2024-01-15T03:44:55;96038.56;;;-3.22;100.00
5062;BME280;2351;50.812;12.872;2024-01-15T03:47:27;96046.69;;;-3.28;100.00
5062;BME280;2351;50.812;12.872;2024-01-15T03:49:59;96045.78;;;-3.27;100.00
5062;BME280;2351;50.812;12.872;2024-01-15T03:52:30;96043.47;;;-3.32;100.00
5062;BME280;2351;50.812;12.872;2024-01-15T03:55:04;96038.00;;;-3.27;100.00
5062;BME280;2351;50.812;12.872;2024-01-15T03:57:36;96038.00;;;-3.27;100.00
5062;BME280;2351;50.812;12.872;2024-01-15T04:00:09;96043.38;;;-3.30;100.00
5062;BME280;2351;50.812;12.872;2024-01-15T04:02:40;96035.97;;;-3.37;100.00
5062;BME280;2351;50.812;12.872;2024-01-15T04:05:12;96043.84;;;-3.38;100.00
5062;BME280;2351;50.812;12.872;2024-01-15T04:07:53;96041.44;;;-3.41;100.00
5062;BME280;2351;50.812;12.872;2024-01-15T04:10:26;96034.50;;;-3.41;100.00
5062;BME280;2351;50.812;12.872;2024-01-15T04:12:57;96039.66;;;-3.41;100.00
5062;BME280;2351;50.812;12.872;2024-01-15T04:15:30;96037.94;;;-3.40;100.00
5062;BME280;2351;50.812;12.872;2024-01-15T04:18:02;96034.50;;;-3.41;100.00
5062;BME280;2351;50.812;12.872;2024-01-15T04:20:34;96026.38;;;-3.49;100.00
5062;BME280;2351;50.812;12.872;2024-01-15T04:23:05;96039.50;;;-3.52;100.00
5062;BME280;2351;50.812;12.872;2024-01-15T04:25:38;96043.91;;;-3.54;100.00
5062;BME280;2351;50.812;12.872;2024-01-15T04:28:12;96038.56;;;-3.51;100.00
5062;BME280;2351;50.812;12.872;2024-01-15T04:30:44;96038.56;;;-3.51;100.00
5062;BME280;2351;50.812;12.872;2024-01-15T04:33:16;96040.41;;;-3.53;100.00
5062;BME280;2351;50.812;12.872;2024-01-15T04:35:47;96035.88;;;-3.50;100.00
5062;BME280;2351;50.812;12.872;2024-01-15T04:38:19;96030.06;;;-3.53;100.00
5062;BME280;2351;50.812;12.872;2024-01-15T04:40:52;96036.16;;;-3.54;100.00
5062;BME280;2351;50.812;12.872;2024-01-15T04:43:24;96030.19;;;-3.55;100.00
5062;BME280;2351;50.812;12.872;2024-01-15T04:45:55;96042.09;;;-3.52;100.00
5062;BME280;2351;50.812;12.872;2024-01-15T04:48:27;96040.88;;;-3.46;100.00
5062;BME280;2351;50.812;12.872;2024-01-15T04:50:59;96031.19;;;-3.43;100.00
5062;BME280;2351;50.812;12.872;2024-01-15T04:53:31;96030.97;;;-3.40;100.00
5062;BME280;2351;50.812;12.872;2024-01-15T04:56:04;96036.25;;;-3.41;100.00
5062;BME280;2351;50.812;12.872;2024-01-15T04:58:36;96049.19;;;-3.41;100.00
5062;BME280;2351;50.812;12.872;2024-01-15T05:01:08;96040.81;;;-3.45;100.00
5062;BME280;2351;50.812;12.872;2024-01-15T05:03:40;96049.47;;;-3.46;100.00
5062;BME280;2351;50.812;12.872;2024-01-15T05:06:12;96046.16;;;-3.48;100.00
5062;BME280;2351;50.812;12.872;2024-01-15T05:08:43;96052.06;;;-3.46;100.00
5062;BME280;2351;50.812;12.872;2024-01-15T05:11:16;96052.06;;;-3.46;100.00
5062;BME280;2351;50.812;12.872;2024-01-15T05:13:48;96060.75;;;-3.47;100.00
5062;BME280;2351;50.812;12.872;2024-01-15T05:16:20;96057.25;;;-3.46;100.00
5062;BME280;2351;50.812;12.872;2024-01-15T05:18:51;96057.41;;;-3.49;100.00
5062;BME280;2351;50.812;12.872;2024-01-15T05:21:23;96054.47;;;-3.43;100.00
5062;BME280;2351;50.812;12.872;2024-01-15T05:23:55;96061.56;;;-3.46;100.00
5062;BME280;2351;50.812;12.872;2024-01-15T05:26:28;96056.31;;;-3.45;100.00
5062;BME280;2351;50.812;12.872;2024-01-15T05:28:59;96056.84;;;-3.40;100.00
5062;BME280;2351;50.812;12.872;2024-01-15T05:31:31;96053.53;;;-3.42;100.00
5062;BME280;2351;50.812;12.872;2024-01-15T05:34:03;96050.69;;;-3.37;100.00
5062;BME280;2351;50.812;12.872;2024-01-15T05:36:34;96068.06;;;-3.39;100.00
5062;BME280;2351;50.812;12.872;2024-01-15T05:39:06;96062.25;;;-3.43;100.00
5062;BME280;2351;50.812;12.872;2024-01-15T05:41:40;96067.31;;;-3.41;100.00
5062;BME280;2351;50.812;12.872;2024-01-15T05:44:12;96070.47;;;-3.36;100.00
5062;BME280;2351;50.812;12.872;2024-01-15T05:46:44;96062.03;;;-3.40;100.00
5062;BME280;2351;50.812;12.872;2024-01-15T05:49:15;96064.34;;;-3.35;100.00
5062;BME280;2351;50.812;12.872;2024-01-15T05:51:47;96065.75;;;-3.29;100.00
5062;BME280;2351;50.812;12.872;2024-01-15T05:54:19;96063.16;;;-3.29;100.00
5062;BME280;2351;50.812;12.872;2024-01-15T05:56:52;96057.06;;;-3.28;100.00
5062;BME280;2351;50.812;12.872;2024-01-15T05:59:24;96047.63;;;-3.29;100.00
5062;BME280;2351;50.812;12.872;2024-01-15T06:01:55;96049.09;;;-3.25;100.00
5062;BME280;2351;50.812;12.872;2024-01-15T06:04:27;96045.78;;;-3.27;100.00
5062;BME280;2351;50.812;12.872;2024-01-15T06:06:59;96048.53;;;-3.30;100.00
5062;BME280;2351;50.812;12.872;2024-01-15T06:09:31;96049.00;;;-3.38;100.00
5062;BME280;2351;50.812;12.872;2024-01-15T06:12:05;96042.91;;;-3.37;100.00
5062;BME280;2351;50.812;12.872;2024-01-15T06:14:37;96046.03;;;-3.46;100.00
5062;BME280;2351;50.812;12.872;2024-01-15T06:17:08;96042.81;;;-3.50;100.00
5062;BME280;2351;50.812;12.872;2024-01-15T06:19:41;96039.38;;;-3.51;100.00
5062;BME280;2351;50.812;12.872;2024-01-15T06:22:12;96035.97;;;-3.51;100.00
5062;BME280;2351;50.812;12.872;2024-01-15T06:24:44;96030.69;;;-3.50;100.00
5062;BME280;2351;50.812;12.872;2024-01-15T06:27:17;96026.56;;;-3.52;100.00
5062;BME280;2351;50.812;12.872;2024-01-15T06:29:49;96024.72;;;-3.50;100.00
5062;BME280;2351;50.812;12.872;2024-01-15T06:32:21;96018.34;;;-3.44;100.00
5062;BME280;2351;50.812;12.872;2024-01-15T06:34:52;96020.63;;;-3.40;100.00
5062;BME280;2351;50.812;12.872;2024-01-15T06:37:24;96027.47;;;-3.39;100.00
5062;BME280;2351;50.812;12.872;2024-01-15T06:39:56;96029.69;;;-3.33;100.00
5062;BME280;2351;50.812;12.872;2024-01-15T06:42:29;96020.25;;;-3.34;100.00
5062;BME280;2351;50.812;12.872;2024-01-15T06:45:00;96017.59;;;-3.32;100.00
5062;BME280;2351;50.812;12.872;2024-01-15T06:47:32;96022.03;;;-3.34;100.00
5062;BME280;2351;50.812;12.872;2024-01-15T06:50:05;96022.84;;;-3.34;100.00
5062;BME280;2351;50.812;12.872;2024-01-15T06:52:37;96015.84;;;-3.31;100.00
5062;BME280;2351;50.812;12.872;2024-01-15T06:55:09;96025.06;;;-3.27;100.00
5062;BME280;2351;50.812;12.872;2024-01-15T06:57:42;96031.47;;;-3.33;100.00
5062;BME280;2351;50.812;12.872;2024-01-15T07:00:14;96029.63;;;-3.31;100.00
5062;BME280;2351;50.812;12.872;2024-01-15T07:02:46;96034.88;;;-3.33;100.00
5062;BME280;2351;50.812;12.872;2024-01-15T07:05:18;96027.28;;;-3.36;100.00
5062;BME280;2351;50.812;12.872;2024-01-15T07:07:50;96025.00;;;-3.40;100.00
5062;BME280;2351;50.812;12.872;2024-01-15T07:10:21;96026.03;;;-3.43;100.00
5062;BME280;2351;50.812;12.872;2024-01-15T07:12:54;96030.25;;;-3.42;100.00
5062;BME280;2351;50.812;12.872;2024-01-15T07:15:26;96025.16;;;-3.43;100.00
5062;BME280;2351;50.812;12.872;2024-01-15T07:17:58;96039.66;;;-3.41;100.00
5062;BME280;2351;50.812;12.872;2024-01-15T07:20:29;96036.81;;;-3.36;100.00
5062;BME280;2351;50.812;12.872;2024-01-15T07:23:01;96042.81;;;-3.36;100.00
5062;BME280;2351;50.812;12.872;2024-01-15T07:25:33;96037.75;;;-3.37;100.00
5062;BME280;2351;50.812;12.872;2024-01-15T07:28:06;96034.06;;;-3.33;100.00
5062;BME280;2351;50.812;12.872;2024-01-15T07:30:38;96042.00;;;-3.36;100.00
5062;BME280;2351;50.812;12.872;2024-01-15T07:33:09;96043.00;;;-3.39;100.00
5062;BME280;2351;50.812;12.872;2024-01-15T07:35:41;96046.59;;;-3.41;100.00
5062;BME280;2351;50.812;12.872;2024-01-15T07:38:13;96054.38;;;-3.41;100.00
5062;BME280;2351;50.812;12.872;2024-01-15T07:40:44;96055.84;;;-3.37;100.00
5062;BME280;2351;50.812;12.872;2024-01-15T07:43:20;96067.03;;;-3.37;100.00
5062;BME280;2351;50.812;12.872;2024-01-15T07:45:53;96059.81;;;-3.31;100.00
5062;BME280;2351;50.812;12.872;2024-01-15T07:48:24;96056.41;;;-3.32;100.00
5062;BME280;2351;50.812;12.872;2024-01-15T07:50:56;96063.25;;;-3.31;100.00
5062;BME280;2351;50.812;12.872;2024-01-15T07:53:28;96065.38;;;-3.23;100.00
5062;BME280;2351;50.812;12.872;2024-01-15T07:55:59;96059.47;;;-3.25;100.00
5062;BME280;2351;50.812;12.872;2024-01-15T07:58:32;96064.63;;;-3.25;100.00
5062;BME280;2351;50.812;12.872;2024-01-15T08:01:04;96055.09;;;-3.25;100.00
5062;BME280;2351;50.812;12.872;2024-01-15T08:03:36;96060.03;;;-3.20;100.00
5062;BME280;2351;50.812;12.872;2024-01-15T08:06:08;96079.69;;;-3.18;100.00
5062;BME280;2351;50.812;12.872;2024-01-15T08:08:40;96057.03;;;-3.14;100.00
5062;BME280;2351;50.812;12.872;2024-01-15T08:11:11;96045.47;;;-3.08;100.00
5062;BME280;2351;50.812;12.872;2024-01-15T08:13:44;96054.81;;;-3.06;100.00
5062;BME280;2351;50.812;12.872;2024-01-15T08:16:16;96059.88;;;-3.04;100.00
5062;BME280;2351;50.812;12.872;2024-01-15T08:18:48;96067.28;;;-2.98;100.00
5062;BME280;2351;50.812;12.872;2024-01-15T08:21:19;96069.88;;;-2.98;100.00
5062;BME280;2351;50.812;12.872;2024-01-15T08:23:51;96065.13;;;-2.91;100.00
5062;BME280;2351;50.812;12.872;2024-01-15T08:26:23;96077.16;;;-2.90;100.00
5062;BME280;2351;50.812;12.872;2024-01-15T08:28:56;96069.94;;;-2.85;100.00
5062;BME280;2351;50.812;12.872;2024-01-15T08:31:28;96060.34;;;-2.83;100.00
5062;BME280;2351;50.812;12.872;2024-01-15T08:34:00;96060.66;;;-2.75;100.00
5062;BME280;2351;50.812;12.872;2024-01-15T08:36:32;96054.38;;;-2.70;100.00
5062;BME280;2351;50.812;12.872;2024-01-15T08:39:05;96057.69;;;-2.68;100.00
5062;BME280;2351;50.812;12.872;2024-01-15T08:41:39;96052.22;;;-2.64;100.00
5062;BME280;2351;50.812;12.872;2024-01-15T08:44:12;96045.00;;;-2.59;100.00
5062;BME280;2351;50.812;12.872;2024-01-15T08:46:44;96046.97;;;-2.62;99.98
5062;BME280;2351;50.812;12.872;2024-01-15T08:49:15;96049.56;;;-2.62;99.76
5062;BME280;2351;50.812;12.872;2024-01-15T08:51:47;96052.03;;;-2.61;99.43
5062;BME280;2351;50.812;12.872;2024-01-15T08:54:19;96056.47;;;-2.63;99.33
5062;BME280;2351;50.812;12.872;2024-01-15T08:56:51;96061.66;;;-2.63;99.06
5062;BME280;2351;50.812;12.872;2024-01-15T08:59:24;96057.31;;;-2.62;99.05
5062;BME280;2351;50.812;12.872;2024-01-15T09:01:56;96053.63;;;-2.58;98.95
5062;BME280;2351;50.812;12.872;2024-01-15T09:04:28;96046.59;;;-2.56;98.18
5062;BME280;2351;50.812;12.872;2024-01-15T09:06:59;96050.63;;;-2.52;99.40
5062;BME280;2351;50.812;12.872;2024-01-15T09:09:32;96055.09;;;-2.54;97.79
5062;BME280;2351;50.812;12.872;2024-01-15T09:12:05;96066.91;;;-2.50;98.36
5062;BME280;2351;50.812;12.872;2024-01-15T09:14:38;96061.53;;;-2.47;97.85
5062;BME280;2351;50.812;12.872;2024-01-15T09:17:10;96058.94;;;-2.47;98.00
5062;BME280;2351;50.812;12.872;2024-01-15T09:19:42;96057.81;;;-2.43;96.95
5062;BME280;2351;50.812;12.872;2024-01-15T09:22:13;96053.25;;;-2.39;97.46
5062;BME280;2351;50.812;12.872;2024-01-15T09:24:48;96049.47;;;-2.20;98.19
5062;BME280;2351;50.812;12.872;2024-01-15T09:27:20;96049.66;;;-1.96;97.13
5062;BME280;2351;50.812;12.872;2024-01-15T09:29:53;96058.78;;;-1.77;97.75
5062;BME280;2351;50.812;12.872;2024-01-15T09:32:25;96063.78;;;-1.74;93.78
5062;BME280;2351;50.812;12.872;2024-01-15T09:34:56;96060.66;;;-1.79;94.36
5062;BME280;2351;50.812;12.872;2024-01-15T09:37:28;96057.34;;;-1.82;93.97
5062;BME280;2351;50.812;12.872;2024-01-15T09:40:00;96049.53;;;-1.94;94.31
5062;BME280;2351;50.812;12.872;2024-01-15T09:42:31;96058.97;;;-1.93;93.89
5062;BME280;2351;50.812;12.872;2024-01-15T09:45:05;96051.09;;;-1.92;94.20
5062;BME280;2351;50.812;12.872;2024-01-15T09:47:37;96059.09;;;-1.95;93.86
5062;BME280;2351;50.812;12.872;2024-01-15T09:50:09;96052.56;;;-1.88;95.07
5062;BME280;2351;50.812;12.872;2024-01-15T09:52:42;96055.78;;;-1.84;94.74
5062;BME280;2351;50.812;12.872;2024-01-15T09:55:15;96060.78;;;-1.81;94.83
5062;BME280;2351;50.812;12.872;2024-01-15T09:57:47;96057.13;;;-1.78;93.68
5062;BME280;2351;50.812;12.872;2024-01-15T10:00:20;96060.66;;;-1.79;93.75
5062;BME280;2351;50.812;12.872;2024-01-15T10:02:52;96064.59;;;-1.87;92.81
5062;BME280;2351;50.812;12.872;2024-01-15T10:05:24;96067.41;;;-1.90;93.87
5062;BME280;2351;50.812;12.872;2024-01-15T10:07:56;96058.78;;;-1.90;92.88
5062;BME280;2351;50.812;12.872;2024-01-15T10:10:28;96061.28;;;-1.89;93.79
5062;BME280;2351;50.812;12.872;2024-01-15T10:13:01;96055.66;;;-1.83;94.38
5062;BME280;2351;50.812;12.872;2024-01-15T10:15:37;96038.88;;;-1.77;93.97
5062;BME280;2351;50.812;12.872;2024-01-15T10:18:09;96047.16;;;-1.72;93.79
5062;BME280;2351;50.812;12.872;2024-01-15T10:20:41;96051.22;;;-1.68;93.57
5062;BME280;2351;50.812;12.872;2024-01-15T10:23:14;96042.63;;;-1.68;92.96
5062;BME280;2351;50.812;12.872;2024-01-15T10:25:46;96040.75;;;-1.53;93.86
5062;BME280;2351;50.812;12.872;2024-01-15T10:28:19;96024.75;;;-1.34;94.04
5062;BME280;2351;50.812;12.872;2024-01-15T10:30:54;96023.38;;;-1.01;95.33
5062;BME280;2351;50.812;12.872;2024-01-15T10:33:26;96021.81;;;-0.66;92.24
5062;BME280;2351;50.812;12.872;2024-01-15T10:36:00;96006.81;;;-0.38;92.06
5062;BME280;2351;50.812;12.872;2024-01-15T10:38:31;96015.31;;;-0.36;87.77
5062;BME280;2351;50.812;12.872;2024-01-15T10:41:03;96012.91;;;-0.51;86.91
5062;BME280;2351;50.812;12.872;2024-01-15T10:43:35;96014.44;;;-0.48;86.51
5062;BME280;2351;50.812;12.872;2024-01-15T10:46:09;96017.81;;;-0.35;87.05
5062;BME280;2351;50.812;12.872;2024-01-15T10:48:42;96011.91;;;-0.37;85.29
5062;BME280;2351;50.812;12.872;2024-01-15T10:51:15;96010.25;;;-0.38;85.92
5062;BME280;2351;50.812;12.872;2024-01-15T10:53:47;96013.50;;;-0.47;85.66
5062;BME280;2351;50.812;12.872;2024-01-15T10:56:20;96016.66;;;-0.55;85.24
5062;BME280;2351;50.812;12.872;2024-01-15T10:58:54;96012.19;;;-0.53;85.93
5062;BME280;2351;50.812;12.872;2024-01-15T11:01:28;96014.09;;;-0.68;84.70
5062;BME280;2351;50.812;12.872;2024-01-15T11:04:00;96010.91;;;-0.71;85.26
5062;BME280;2351;50.812;12.872;2024-01-15T11:06:42;96006.16;;;-0.78;86.16
5062;BME280;2351;50.812;12.872;2024-01-15T11:09:13;96021.31;;;-0.71;86.74
5062;BME280;2351;50.812;12.872;2024-01-15T11:11:51;96013.34;;;-0.57;87.23
5062;BME280;2351;50.812;12.872;2024-01-15T11:14:33;96006.56;;;-0.47;86.95
5062;BME280;2351;50.812;12.872;2024-01-15T11:17:07;96000.09;;;-0.29;87.48
5062;BME280;2351;50.812;12.872;2024-01-15T11:19:43;95999.16;;;-0.28;85.98
5062;BME280;2351;50.812;12.872;2024-01-15T11:22:48;96000.56;;;-0.36;84.67
5062;BME280;2351;50.812;12.872;2024-01-15T11:25:20;96001.34;;;-0.47;84.09
5062;BME280;2351;50.812;12.872;2024-01-15T11:27:52;95999.69;;;-0.48;84.14
5062;BME280;2351;50.812;12.872;2024-01-15T11:30:25;95991.16;;;-0.50;83.92
5062;BME280;2351;50.812;12.872;2024-01-15T11:32:58;95992.34;;;-0.54;84.57
5062;BME280;2351;50.812;12.872;2024-01-15T11:35:48;95991.94;;;-0.61;84.43
5062;BME280;2351;50.812;12.872;2024-01-15T11:38:29;95980.50;;;-0.58;85.29
5062;BME280;2351;50.812;12.872;2024-01-15T11:41:00;95983.94;;;-0.57;85.41
5062;BME280;2351;50.812;12.872;2024-01-15T11:43:32;95995.75;;;-0.53;84.85
5062;BME280;2351;50.812;12.872;2024-01-15T11:46:09;95984.66;;;-0.55;85.52
5062;BME280;2351;50.812;12.872;2024-01-15T11:48:49;95994.09;;;-0.54;84.62
5062;BME280;2351;50.812;12.872;2024-01-15T11:51:27;95989.59;;;-0.52;84.69
5062;BME280;2351;50.812;12.872;2024-01-15T11:54:01;95996.09;;;-0.58;84.83
5062;BME280;2351;50.812;12.872;2024-01-15T11:56:35;95978.44;;;-0.66;84.29
5062;BME280;2351;50.812;12.872;2024-01-15T11:59:08;95998.84;;;-0.72;85.23
5062;BME280;2351;50.812;12.872;2024-01-15T12:01:39;95999.06;;;-0.76;85.34
5062;BME280;2351;50.812;12.872;2024-01-15T12:04:12;95989.50;;;-0.75;84.87
5062;BME280;2351;50.812;12.872;2024-01-15T12:06:47;95998.22;;;-0.76;85.63
5062;BME280;2351;50.812;12.872;2024-01-15T12:09:19;96000.91;;;-0.89;86.27
5062;BME280;2351;50.812;12.872;2024-01-15T12:11:57;95996.72;;;-0.92;86.37
5062;BME280;2351;50.812;12.872;2024-01-15T12:14:35;96003.38;;;-0.87;86.62
5062;BME280;2351;50.812;12.872;2024-01-15T12:17:09;96009.72;;;-0.92;86.63
5062;BME280;2351;50.812;12.872;2024-01-15T12:19:43;96000.97;;;-0.91;86.72
5062;BME280;2351;50.812;12.872;2024-01-15T12:22:14;95999.22;;;-0.90;86.05
5062;BME280;2351;50.812;12.872;2024-01-15T12:24:46;95996.72;;;-0.92;86.93
5062;BME280;2351;50.812;12.872;2024-01-15T12:27:18;95991.78;;;-1.08;87.50
5062;BME280;2351;50.812;12.872;2024-01-15T12:29:50;95998.03;;;-1.10;87.41
5062;BME280;2351;50.812;12.872;2024-01-15T12:32:23;96001.88;;;-1.03;87.26
5062;BME280;2351;50.812;12.872;2024-01-15T12:34:57;95995.44;;;-1.10;87.42
5062;BME280;2351;50.812;12.872;2024-01-15T12:37:29;96002.50;;;-1.12;87.39
5062;BME280;2351;50.812;12.872;2024-01-15T12:40:00;95989.50;;;-1.12;87.80
5062;BME280;2351;50.812;12.872;2024-01-15T12:42:33;95986.31;;;-1.16;88.20
5062;BME280;2351;50.812;12.872;2024-01-15T12:45:06;95981.94;;;-1.15;88.68
5062;BME280;2351;50.812;12.872;2024-01-15T12:47:38;95991.81;;;-1.21;88.30
5062;BME280;2351;50.812;12.872;2024-01-15T12:50:12;95978.63;;;-1.17;89.12
5062;BME280;2351;50.812;12.872;2024-01-15T12:52:44;95993.16;;;-1.15;89.22
5062;BME280;2351;50.812;12.872;2024-01-15T12:55:16;95984.94;;;-1.09;89.13
5062;BME280;2351;50.812;12.872;2024-01-15T12:57:48;95986.28;;;-1.03;89.23
5062;BME280;2351;50.812;12.872;2024-01-15T13:00:20;95976.28;;;-0.96;89.49
5062;BME280;2351;50.812;12.872;2024-01-15T13:02:51;95977.53;;;-0.89;88.51
5062;BME280;2351;50.812;12.872;2024-01-15T13:05:26;95985.81;;;-0.97;88.12
5062;BME280;2351;50.812;12.872;2024-01-15T13:07:58;95978.38;;;-1.01;88.14
5062;BME280;2351;50.812;12.872;2024-01-15T13:10:31;95978.19;;;-1.11;87.94
5062;BME280;2351;50.812;12.872;2024-01-15T13:13:03;95981.34;;;-1.19;89.08
5062;BME280;2351;50.812;12.872;2024-01-15T13:15:35;95990.25;;;-1.23;87.89
5062;BME280;2351;50.812;12.872;2024-01-15T13:18:07;95978.56;;;-1.29;89.40
5062;BME280;2351;50.812;12.872;2024-01-15T13:20:41;95987.47;;;-1.33;89.43
5062;BME280;2351;50.812;12.872;2024-01-15T13:23:13;95990.41;;;-1.38;89.34
5062;BME280;2351;50.812;12.872;2024-01-15T13:25:44;95996.94;;;-1.45;90.64
5062;BME280;2351;50.812;12.872;2024-01-15T13:28:16;95994.47;;;-1.46;90.76
5062;BME280;2351;50.812;12.872;2024-01-15T13:30:48;95998.09;;;-1.49;91.07
5062;BME280;2351;50.812;12.872;2024-01-15T13:33:20;95994.66;;;-1.49;91.19